sensor_id;sensor_type;location;lat;lon;timestamp;P1;durP1;ratioP1;P2;durP2;ratioP2
21886;SDS011;11108;49.988;8.182;2023-05-10T00:02:20;1.50;;;1.40;;
21886;SDS011;11108;49.988;8.182;2023-05-10T00:04:46;1.40;;;1.30;;
21886;SDS011;11108;49.988;8.182;2023-05-10T00:07:11;1.30;;;1.23;;
21886;SDS011;11108;49.988;8.182;2023-05-10T00:09:36;1.33;;;1.30;;
21886;SDS011;11108;49.988;8.182;2023-05-10T00:12:01;1.10;;;1.10;;
21886;SDS011;11108;49.988;8.182;2023-05-10T00:14:26;1.10;;;1.10;;
21886;SDS011;11108;49.988;8.182;2023-05-10T00:16:52;1.13;;;1.13;;
21886;SDS011;11108;49.988;8.182;2023-05-10T00:19:17;1.17;;;1.17;;
21886;SDS011;11108;49.988;8.182;2023-05-10T00:21:42;1.30;;;1.30;;
21886;SDS011;11108;49.988;8.182;2023-05-10T00:24:07;1.40;;;1.30;;
21886;SDS011;11108;49.988;8.182;2023-05-10T00:26:33;1.10;;;1.10;;
21886;SDS011;11108;49.988;8.182;2023-05-10T00:28:59;1.50;;;1.40;;
21886;SDS011;11108;49.988;8.182;2023-05-10T00:31:24;1.13;;;1.13;;
21886;SDS011;11108;49.988;8.182;2023-05-10T00:33:49;1.17;;;1.17;;
21886;SDS011;11108;49.988;8.182;2023-05-10T00:36:15;1.10;;;1.10;;
21886;SDS011;11108;49.988;8.182;2023-05-10T00:38:40;1.30;;;1.10;;
21886;SDS011;11108;49.988;8.182;2023-05-10T00:41:05;1.00;;;1.00;;
21886;SDS011;11108;49.988;8.182;2023-05-10T00:43:30;1.47;;;1.30;;
21886;SDS011;11108;49.988;8.182;2023-05-10T00:45:56;1.10;;;1.10;;
21886;SDS011;11108;49.988;8.182;2023-05-10T00:48:21;1.10;;;1.10;;
21886;SDS011;11108;49.988;8.182;2023-05-10T00:50:46;1.60;;;1.10;;
21886;SDS011;11108;49.988;8.182;2023-05-10T00:53:12;1.53;;;1.20;;
21886;SDS011;11108;49.988;8.182;2023-05-10T00:55:37;2.23;;;1.23;;
21886;SDS011;11108;49.988;8.182;2023-05-10T00:58:02;1.20;;;1.20;;
21886;SDS011;11108;49.988;8.182;2023-05-10T01:00:28;1.10;;;1.10;;
21886;SDS011;11108;49.988;8.182;2023-05-10T01:02:54;1.37;;;1.37;;
21886;SDS011;11108;49.988;8.182;2023-05-10T01:05:19;0.87;;;0.87;;
21886;SDS011;11108;49.988;8.182;2023-05-10T01:07:45;1.17;;;1.07;;
21886;SDS011;11108;49.988;8.182;2023-05-10T01:10:10;0.93;;;0.93;;
21886;SDS011;11108;49.988;8.182;2023-05-10T01:12:37;1.17;;;1.10;;
21886;SDS011;11108;49.988;8.182;2023-05-10T01:15:03;1.00;;;1.00;;
21886;SDS011;11108;49.988;8.182;2023-05-10T01:17:29;1.03;;;1.03;;
21886;SDS011;11108;49.988;8.182;2023-05-10T01:19:54;0.80;;;0.80;;
21886;SDS011;11108;49.988;8.182;2023-05-10T01:30:22;1.03;;;0.90;;
21886;SDS011;11108;49.988;8.182;2023-05-10T01:38:19;0.90;;;0.90;;
21886;SDS011;11108;49.988;8.182;2023-05-10T01:43:16;0.90;;;0.90;;
21886;SDS011;11108;49.988;8.182;2023-05-10T01:45:47;0.70;;;0.70;;
21886;SDS011;11108;49.988;8.182;2023-05-10T01:48:15;0.90;;;0.90;;
21886;SDS011;11108;49.988;8.182;2023-05-10T01:50:42;0.83;;;0.83;;
21886;SDS011;11108;49.988;8.182;2023-05-10T01:53:08;1.10;;;1.10;;
21886;SDS011;11108;49.988;8.182;2023-05-10T01:55:47;0.80;;;0.80;;
21886;SDS011;11108;49.988;8.182;2023-05-10T01:58:14;1.17;;;0.90;;
21886;SDS011;11108;49.988;8.182;2023-05-10T02:00:41;0.80;;;0.80;;
21886;SDS011;11108;49.988;8.182;2023-05-10T02:03:08;0.80;;;0.80;;
21886;SDS011;11108;49.988;8.182;2023-05-10T02:05:33;0.60;;;0.60;;
21886;SDS011;11108;49.988;8.182;2023-05-10T02:07:59;0.77;;;0.77;;
21886;SDS011;11108;49.988;8.182;2023-05-10T02:10:26;0.70;;;0.70;;
21886;SDS011;11108;49.988;8.182;2023-05-10T02:12:52;0.73;;;0.73;;
21886;SDS011;11108;49.988;8.182;2023-05-10T02:15:19;0.70;;;0.70;;
21886;SDS011;11108;49.988;8.182;2023-05-10T02:17:46;0.90;;;0.90;;
21886;SDS011;11108;49.988;8.182;2023-05-10T02:20:11;0.80;;;0.80;;
21886;SDS011;11108;49.988;8.182;2023-05-10T02:22:37;0.80;;;0.80;;
21886;SDS011;11108;49.988;8.182;2023-05-10T02:25:04;1.13;;;1.00;;
21886;SDS011;11108;49.988;8.182;2023-05-10T02:27:29;0.83;;;0.80;;
21886;SDS011;11108;49.988;8.182;2023-05-10T02:29:55;0.77;;;0.77;;
21886;SDS011;11108;49.988;8.182;2023-05-10T02:32:21;0.90;;;0.90;;
21886;SDS011;11108;49.988;8.182;2023-05-10T02:34:47;0.93;;;0.93;;
21886;SDS011;11108;49.988;8.182;2023-05-10T02:37:16;0.70;;;0.70;;
21886;SDS011;11108;49.988;8.182;2023-05-10T02:39:43;0.67;;;0.67;;
21886;SDS011;11108;49.988;8.182;2023-05-10T02:42:14;0.70;;;0.70;;
21886;SDS011;11108;49.988;8.182;2023-05-10T02:44:40;0.80;;;0.80;;
21886;SDS011;11108;49.988;8.182;2023-05-10T02:47:06;1.43;;;0.97;;
21886;SDS011;11108;49.988;8.182;2023-05-10T02:49:31;0.60;;;0.60;;
21886;SDS011;11108;49.988;8.182;2023-05-10T02:51:58;0.70;;;0.70;;
21886;SDS011;11108;49.988;8.182;2023-05-10T02:54:27;1.20;;;0.93;;
21886;SDS011;11108;49.988;8.182;2023-05-10T02:56:56;0.70;;;0.70;;
21886;SDS011;11108;49.988;8.182;2023-05-10T02:59:22;0.77;;;0.77;;
21886;SDS011;11108;49.988;8.182;2023-05-10T03:01:47;0.70;;;0.70;;
21886;SDS011;11108;49.988;8.182;2023-05-10T03:04:12;0.87;;;0.87;;
21886;SDS011;11108;49.988;8.182;2023-05-10T03:06:38;1.03;;;0.60;;
21886;SDS011;11108;49.988;8.182;2023-05-10T03:09:03;0.90;;;0.90;;
21886;SDS011;11108;49.988;8.182;2023-05-10T03:11:50;0.70;;;0.70;;
21886;SDS011;11108;49.988;8.182;2023-05-10T03:16:46;0.87;;;0.60;;
21886;SDS011;11108;49.988;8.182;2023-05-10T03:19:16;0.83;;;0.70;;
21886;SDS011;11108;49.988;8.182;2023-05-10T03:21:43;0.70;;;0.70;;
21886;SDS011;11108;49.988;8.182;2023-05-10T03:24:10;0.53;;;0.53;;
21886;SDS011;11108;49.988;8.182;2023-05-10T03:26:37;0.40;;;0.40;;
21886;SDS011;11108;49.988;8.182;2023-05-10T03:29:04;1.03;;;0.67;;
21886;SDS011;11108;49.988;8.182;2023-05-10T03:31:29;0.70;;;0.70;;
21886;SDS011;11108;49.988;8.182;2023-05-10T03:33:55;1.03;;;0.67;;
21886;SDS011;11108;49.988;8.182;2023-05-10T03:36:20;0.70;;;0.60;;
21886;SDS011;11108;49.988;8.182;2023-05-10T03:38:45;0.60;;;0.60;;
21886;SDS011;11108;49.988;8.182;2023-05-10T03:41:11;0.80;;;0.63;;
21886;SDS011;11108;49.988;8.182;2023-05-10T03:43:36;0.80;;;0.80;;
21886;SDS011;11108;49.988;8.182;2023-05-10T03:46:04;0.77;;;0.77;;
21886;SDS011;11108;49.988;8.182;2023-05-10T03:48:30;0.60;;;0.60;;
21886;SDS011;11108;49.988;8.182;2023-05-10T03:50:55;0.57;;;0.57;;
21886;SDS011;11108;49.988;8.182;2023-05-10T03:53:20;0.67;;;0.67;;
21886;SDS011;11108;49.988;8.182;2023-05-10T03:55:46;0.50;;;0.50;;
21886;SDS011;11108;49.988;8.182;2023-05-10T03:58:11;0.63;;;0.60;;
21886;SDS011;11108;49.988;8.182;2023-05-10T04:00:36;0.53;;;0.53;;
21886;SDS011;11108;49.988;8.182;2023-05-10T04:03:02;0.70;;;0.70;;
21886;SDS011;11108;49.988;8.182;2023-05-10T04:05:27;0.53;;;0.53;;
21886;SDS011;11108;49.988;8.182;2023-05-10T04:07:52;1.07;;;0.60;;
21886;SDS011;11108;49.988;8.182;2023-05-10T04:10:17;0.70;;;0.70;;
21886;SDS011;11108;49.988;8.182;2023-05-10T04:12:42;0.70;;;0.70;;
21886;SDS011;11108;49.988;8.182;2023-05-10T04:15:08;0.70;;;0.70;;
21886;SDS011;11108;49.988;8.182;2023-05-10T04:17:33;0.60;;;0.60;;
21886;SDS011;11108;49.988;8.182;2023-05-10T04:19:58;0.50;;;0.50;;
21886;SDS011;11108;49.988;8.182;2023-05-10T04:22:24;0.50;;;0.50;;
21886;SDS011;11108;49.988;8.182;2023-05-10T04:24:49;0.60;;;0.60;;
21886;SDS011;11108;49.988;8.182;2023-05-10T04:27:14;0.50;;;0.50;;
21886;SDS011;11108;49.988;8.182;2023-05-10T04:29:39;0.73;;;0.60;;
21886;SDS011;11108;49.988;8.182;2023-05-10T04:32:04;1.43;;;0.60;;
21886;SDS011;11108;49.988;8.182;2023-05-10T04:34:30;0.50;;;0.50;;
21886;SDS011;11108;49.988;8.182;2023-05-10T04:36:55;0.50;;;0.50;;
21886;SDS011;11108;49.988;8.182;2023-05-10T04:39:20;0.70;;;0.70;;
21886;SDS011;11108;49.988;8.182;2023-05-10T04:41:45;0.40;;;0.40;;
21886;SDS011;11108;49.988;8.182;2023-05-10T04:44:10;0.70;;;0.50;;
21886;SDS011;11108;49.988;8.182;2023-05-10T04:46:35;0.50;;;0.50;;
21886;SDS011;11108;49.988;8.182;2023-05-10T04:49:01;0.63;;;0.63;;
21886;SDS011;11108;49.988;8.182;2023-05-10T04:51:26;1.03;;;0.70;;
21886;SDS011;11108;49.988;8.182;2023-05-10T04:53:51;0.60;;;0.60;;
21886;SDS011;11108;49.988;8.182;2023-05-10T04:56:16;0.57;;;0.57;;
21886;SDS011;11108;49.988;8.182;2023-05-10T04:58:42;0.50;;;0.50;;
21886;SDS011;11108;49.988;8.182;2023-05-10T05:01:07;0.63;;;0.63;;
21886;SDS011;11108;49.988;8.182;2023-05-10T05:03:34;0.50;;;0.50;;
21886;SDS011;11108;49.988;8.182;2023-05-10T05:05:59;0.97;;;0.63;;
21886;SDS011;11108;49.988;8.182;2023-05-10T05:08:25;0.50;;;0.50;;
21886;SDS011;11108;49.988;8.182;2023-05-10T05:10:50;0.60;;;0.60;;
21886;SDS011;11108;49.988;8.182;2023-05-10T05:13:15;0.50;;;0.50;;
21886;SDS011;11108;49.988;8.182;2023-05-10T05:15:40;0.67;;;0.67;;
21886;SDS011;11108;49.988;8.182;2023-05-10T05:18:06;0.40;;;0.40;;
21886;SDS011;11108;49.988;8.182;2023-05-10T05:20:32;0.53;;;0.53;;
21886;SDS011;11108;49.988;8.182;2023-05-10T05:22:57;0.70;;;0.70;;
21886;SDS011;11108;49.988;8.182;2023-05-10T05:25:22;0.63;;;0.63;;
21886;SDS011;11108;49.988;8.182;2023-05-10T05:27:47;0.50;;;0.50;;
21886;SDS011;11108;49.988;8.182;2023-05-10T05:30:12;0.60;;;0.60;;
21886;SDS011;11108;49.988;8.182;2023-05-10T05:32:38;1.03;;;0.60;;
21886;SDS011;11108;49.988;8.182;2023-05-10T05:35:03;0.87;;;0.70;;
21886;SDS011;11108;49.988;8.182;2023-05-10T05:37:28;1.13;;;0.70;;
21886;SDS011;11108;49.988;8.182;2023-05-10T05:39:54;0.50;;;0.50;;
21886;SDS011;11108;49.988;8.182;2023-05-10T05:42:19;0.50;;;0.50;;
21886;SDS011;11108;49.988;8.182;2023-05-10T05:44:45;0.73;;;0.60;;
21886;SDS011;11108;49.988;8.182;2023-05-10T05:47:10;0.80;;;0.70;;
21886;SDS011;11108;49.988;8.182;2023-05-10T05:49:35;1.50;;;0.80;;
21886;SDS011;11108;49.988;8.182;2023-05-10T05:52:01;0.53;;;0.53;;
21886;SDS011;11108;49.988;8.182;2023-05-10T05:54:27;0.60;;;0.60;;
21886;SDS011;11108;49.988;8.182;2023-05-10T05:56:59;0.60;;;0.60;;
21886;SDS011;11108;49.988;8.182;2023-05-10T05:59:24;0.60;;;0.60;;
21886;SDS011;11108;49.988;8.182;2023-05-10T06:01:49;0.63;;;0.63;;
21886;SDS011;11108;49.988;8.182;2023-05-10T06:04:15;1.03;;;0.70;;
21886;SDS011;11108;49.988;8.182;2023-05-10T06:06:40;0.60;;;0.60;;
21886;SDS011;11108;49.988;8.182;2023-05-10T06:09:06;0.83;;;0.83;;
21886;SDS011;11108;49.988;8.182;2023-05-10T06:11:31;0.70;;;0.70;;
21886;SDS011;11108;49.988;8.182;2023-05-10T06:13:57;0.97;;;0.60;;
21886;SDS011;11108;49.988;8.182;2023-05-10T06:16:22;0.60;;;0.60;;
21886;SDS011;11108;49.988;8.182;2023-05-10T06:18:48;0.67;;;0.67;;
21886;SDS011;11108;49.988;8.182;2023-05-10T06:21:13;1.10;;;0.90;;
21886;SDS011;11108;49.988;8.182;2023-05-10T06:23:39;1.03;;;0.83;;
21886;SDS011;11108;49.988;8.182;2023-05-10T06:26:04;1.23;;;0.80;;
21886;SDS011;11108;49.988;8.182;2023-05-10T06:28:30;0.83;;;0.83;;
21886;SDS011;11108;49.988;8.182;2023-05-10T06:30:57;0.80;;;0.80;;
21886;SDS011;11108;49.988;8.182;2023-05-10T06:33:22;0.80;;;0.80;;
21886;SDS011;11108;49.988;8.182;2023-05-10T06:35:47;0.97;;;0.70;;
21886;SDS011;11108;49.988;8.182;2023-05-10T06:38:12;0.70;;;0.70;;
21886;SDS011;11108;49.988;8.182;2023-05-10T06:40:40;0.83;;;0.83;;
21886;SDS011;11108;49.988;8.182;2023-05-10T06:43:05;0.87;;;0.87;;
21886;SDS011;11108;49.988;8.182;2023-05-10T06:45:31;0.70;;;0.70;;
21886;SDS011;11108;49.988;8.182;2023-05-10T06:47:56;0.60;;;0.60;;
21886;SDS011;11108;49.988;8.182;2023-05-10T06:50:21;0.90;;;0.90;;
21886;SDS011;11108;49.988;8.182;2023-05-10T06:52:46;0.87;;;0.77;;
21886;SDS011;11108;49.988;8.182;2023-05-10T06:55:12;1.43;;;0.73;;
21886;SDS011;11108;49.988;8.182;2023-05-10T06:57:37;0.60;;;0.60;;
21886;SDS011;11108;49.988;8.182;2023-05-10T07:00:02;0.77;;;0.77;;
21886;SDS011;11108;49.988;8.182;2023-05-10T07:02:29;0.60;;;0.60;;
21886;SDS011;11108;49.988;8.182;2023-05-10T07:04:54;0.80;;;0.80;;
21886;SDS011;11108;49.988;8.182;2023-05-10T07:07:20;0.80;;;0.80;;
21886;SDS011;11108;49.988;8.182;2023-05-10T07:09:45;0.77;;;0.77;;
21886;SDS011;11108;49.988;8.182;2023-05-10T07:12:10;2.17;;;0.80;;
21886;SDS011;11108;49.988;8.182;2023-05-10T07:14:35;1.13;;;0.63;;
21886;SDS011;11108;49.988;8.182;2023-05-10T07:17:00;0.60;;;0.60;;
21886;SDS011;11108;49.988;8.182;2023-05-10T07:19:26;0.70;;;0.70;;
21886;SDS011;11108;49.988;8.182;2023-05-10T07:21:51;0.70;;;0.70;;
21886;SDS011;11108;49.988;8.182;2023-05-10T07:24:16;0.80;;;0.80;;
21886;SDS011;11108;49.988;8.182;2023-05-10T07:26:41;0.70;;;0.70;;
21886;SDS011;11108;49.988;8.182;2023-05-10T07:29:06;0.63;;;0.63;;
21886;SDS011;11108;49.988;8.182;2023-05-10T07:31:32;0.80;;;0.80;;
21886;SDS011;11108;49.988;8.182;2023-05-10T07:33:57;0.77;;;0.77;;
21886;SDS011;11108;49.988;8.182;2023-05-10T07:36:22;0.90;;;0.90;;
21886;SDS011;11108;49.988;8.182;2023-05-10T07:38:47;1.00;;;0.90;;
21886;SDS011;11108;49.988;8.182;2023-05-10T07:41:14;0.70;;;0.70;;
21886;SDS011;11108;49.988;8.182;2023-05-10T07:43:39;1.47;;;0.80;;
21886;SDS011;11108;49.988;8.182;2023-05-10T07:46:04;0.80;;;0.80;;
21886;SDS011;11108;49.988;8.182;2023-05-10T07:48:30;0.60;;;0.60;;
21886;SDS011;11108;49.988;8.182;2023-05-10T07:50:55;0.87;;;0.87;;
21886;SDS011;11108;49.988;8.182;2023-05-10T07:53:20;0.80;;;0.80;;
21886;SDS011;11108;49.988;8.182;2023-05-10T07:55:57;0.80;;;0.80;;
21886;SDS011;11108;49.988;8.182;2023-05-10T07:58:23;0.57;;;0.57;;
21886;SDS011;11108;49.988;8.182;2023-05-10T08:00:48;0.80;;;0.80;;
21886;SDS011;11108;49.988;8.182;2023-05-10T08:03:14;0.60;;;0.60;;
21886;SDS011;11108;49.988;8.182;2023-05-10T08:05:39;0.70;;;0.70;;
21886;SDS011;11108;49.988;8.182;2023-05-10T08:08:04;0.70;;;0.70;;
21886;SDS011;11108;49.988;8.182;2023-05-10T08:10:30;0.80;;;0.80;;
21886;SDS011;11108;49.988;8.182;2023-05-10T08:12:55;0.90;;;0.90;;
21886;SDS011;11108;49.988;8.182;2023-05-10T08:15:20;1.07;;;1.07;;
21886;SDS011;11108;49.988;8.182;2023-05-10T08:17:45;0.60;;;0.60;;
21886;SDS011;11108;49.988;8.182;2023-05-10T08:20:10;1.00;;;1.00;;
21886;SDS011;11108;49.988;8.182;2023-05-10T08:22:37;0.90;;;0.90;;
21886;SDS011;11108;49.988;8.182;2023-05-10T08:25:03;0.80;;;0.80;;
21886;SDS011;11108;49.988;8.182;2023-05-10T08:27:28;0.90;;;0.90;;
21886;SDS011;11108;49.988;8.182;2023-05-10T08:29:53;0.83;;;0.83;;
21886;SDS011;11108;49.988;8.182;2023-05-10T08:32:18;1.33;;;1.00;;
21886;SDS011;11108;49.988;8.182;2023-05-10T08:34:43;0.87;;;0.87;;
21886;SDS011;11108;49.988;8.182;2023-05-10T08:37:08;0.80;;;0.80;;
21886;SDS011;11108;49.988;8.182;2023-05-10T08:39:35;0.80;;;0.80;;
21886;SDS011;11108;49.988;8.182;2023-05-10T08:42:01;1.17;;;1.07;;
21886;SDS011;11108;49.988;8.182;2023-05-10T08:44:27;1.13;;;1.03;;
21886;SDS011;11108;49.988;8.182;2023-05-10T08:46:52;0.80;;;0.80;;
21886;SDS011;11108;49.988;8.182;2023-05-10T08:49:18;0.70;;;0.70;;
21886;SDS011;11108;49.988;8.182;2023-05-10T08:51:47;0.83;;;0.83;;
21886;SDS011;11108;49.988;8.182;2023-05-10T08:54:14;1.07;;;0.97;;
21886;SDS011;11108;49.988;8.182;2023-05-10T08:56:39;1.00;;;0.90;;
21886;SDS011;11108;49.988;8.182;2023-05-10T08:59:05;0.80;;;0.80;;
21886;SDS011;11108;49.988;8.182;2023-05-10T09:01:31;1.20;;;0.80;;
21886;SDS011;11108;49.988;8.182;2023-05-10T09:03:56;0.93;;;0.93;;
21886;SDS011;11108;49.988;8.182;2023-05-10T09:06:22;0.80;;;0.80;;
21886;SDS011;11108;49.988;8.182;2023-05-10T09:08:47;0.87;;;0.80;;
21886;SDS011;11108;49.988;8.182;2023-05-10T09:11:12;0.80;;;0.80;;
21886;SDS011;11108;49.988;8.182;2023-05-10T09:13:38;0.90;;;0.90;;
21886;SDS011;11108;49.988;8.182;2023-05-10T09:16:03;0.87;;;0.87;;
21886;SDS011;11108;49.988;8.182;2023-05-10T09:18:29;0.80;;;0.80;;
21886;SDS011;11108;49.988;8.182;2023-05-10T09:20:54;1.40;;;1.00;;
21886;SDS011;11108;49.988;8.182;2023-05-10T09:23:19;1.13;;;1.10;;
21886;SDS011;11108;49.988;8.182;2023-05-10T09:25:45;0.90;;;0.90;;
21886;SDS011;11108;49.988;8.182;2023-05-10T09:28:10;0.70;;;0.70;;
21886;SDS011;11108;49.988;8.182;2023-05-10T09:30:36;1.17;;;0.93;;
21886;SDS011;11108;49.988;8.182;2023-05-10T09:33:01;0.90;;;0.90;;
21886;SDS011;11108;49.988;8.182;2023-05-10T09:35:27;0.90;;;0.90;;
21886;SDS011;11108;49.988;8.182;2023-05-10T09:37:53;1.20;;;1.20;;
21886;SDS011;11108;49.988;8.182;2023-05-10T09:40:20;0.97;;;0.97;;
21886;SDS011;11108;49.988;8.182;2023-05-10T09:42:52;0.90;;;0.90;;
21886;SDS011;11108;49.988;8.182;2023-05-10T09:45:17;1.53;;;0.90;;
21886;SDS011;11108;49.988;8.182;2023-05-10T09:47:43;1.00;;;0.87;;
21886;SDS011;11108;49.988;8.182;2023-05-10T09:50:08;0.70;;;0.70;;
21886;SDS011;11108;49.988;8.182;2023-05-10T09:55:19;0.90;;;0.90;;
21886;SDS011;11108;49.988;8.182;2023-05-10T09:57:45;0.77;;;0.77;;
21886;SDS011;11108;49.988;8.182;2023-05-10T10:00:10;0.80;;;0.80;;
21886;SDS011;11108;49.988;8.182;2023-05-10T10:02:41;0.93;;;0.50;;
21886;SDS011;11108;49.988;8.182;2023-05-10T10:05:06;0.90;;;0.90;;
21886;SDS011;11108;49.988;8.182;2023-05-10T10:07:32;1.17;;;0.90;;
21886;SDS011;11108;49.988;8.182;2023-05-10T10:09:58;0.80;;;0.80;;
21886;SDS011;11108;49.988;8.182;2023-05-10T10:12:23;0.77;;;0.77;;
21886;SDS011;11108;49.988;8.182;2023-05-10T10:14:48;0.97;;;0.97;;
21886;SDS011;11108;49.988;8.182;2023-05-10T10:17:15;0.70;;;0.70;;
21886;SDS011;11108;49.988;8.182;2023-05-10T10:19:40;0.73;;;0.73;;
21886;SDS011;11108;49.988;8.182;2023-05-10T10:22:06;1.03;;;0.70;;
21886;SDS011;11108;49.988;8.182;2023-05-10T10:24:31;0.83;;;0.83;;
21886;SDS011;11108;49.988;8.182;2023-05-10T10:26:58;0.67;;;0.50;;
21886;SDS011;11108;49.988;8.182;2023-05-10T10:29:36;0.67;;;0.67;;
21886;SDS011;11108;49.988;8.182;2023-05-10T10:34:51;0.60;;;0.60;;
21886;SDS011;11108;49.988;8.182;2023-05-10T10:37:17;0.70;;;0.70;;
21886;SDS011;11108;49.988;8.182;2023-05-10T10:39:42;1.23;;;0.80;;
21886;SDS011;11108;49.988;8.182;2023-05-10T10:42:07;1.10;;;0.87;;
21886;SDS011;11108;49.988;8.182;2023-05-10T10:44:33;0.67;;;0.67;;
21886;SDS011;11108;49.988;8.182;2023-05-10T10:49:42;0.77;;;0.77;;
21886;SDS011;11108;49.988;8.182;2023-05-10T10:52:14;0.93;;;0.93;;
21886;SDS011;11108;49.988;8.182;2023-05-10T10:54:40;0.73;;;0.70;;
21886;SDS011;11108;49.988;8.182;2023-05-10T10:57:13;0.73;;;0.73;;
21886;SDS011;11108;49.988;8.182;2023-05-10T10:59:42;0.80;;;0.77;;
21886;SDS011;11108;49.988;8.182;2023-05-10T11:02:13;1.00;;;1.00;;
21886;SDS011;11108;49.988;8.182;2023-05-10T11:04:55;1.83;;;0.70;;
21886;SDS011;11108;49.988;8.182;2023-05-10T11:07:20;0.53;;;0.53;;
21886;SDS011;11108;49.988;8.182;2023-05-10T11:09:46;0.60;;;0.60;;
21886;SDS011;11108;49.988;8.182;2023-05-10T11:12:11;0.40;;;0.40;;
21886;SDS011;11108;49.988;8.182;2023-05-10T11:14:37;0.60;;;0.60;;
21886;SDS011;11108;49.988;8.182;2023-05-10T11:17:02;0.70;;;0.70;;
21886;SDS011;11108;49.988;8.182;2023-05-10T11:20:02;0.63;;;0.63;;
21886;SDS011;11108;49.988;8.182;2023-05-10T11:22:27;0.70;;;0.70;;
21886;SDS011;11108;49.988;8.182;2023-05-10T11:24:56;0.50;;;0.50;;
21886;SDS011;11108;49.988;8.182;2023-05-10T11:27:23;1.00;;;1.00;;
21886;SDS011;11108;49.988;8.182;2023-05-10T11:29:51;0.87;;;0.70;;
21886;SDS011;11108;49.988;8.182;2023-05-10T11:32:16;0.60;;;0.60;;
21886;SDS011;11108;49.988;8.182;2023-05-10T11:34:41;0.57;;;0.57;;
21886;SDS011;11108;49.988;8.182;2023-05-10T11:37:06;0.80;;;0.80;;
21886;SDS011;11108;49.988;8.182;2023-05-10T11:39:32;0.77;;;0.77;;
21886;SDS011;11108;49.988;8.182;2023-05-10T11:41:58;0.60;;;0.60;;
21886;SDS011;11108;49.988;8.182;2023-05-10T11:44:28;0.67;;;0.60;;
21886;SDS011;11108;49.988;8.182;2023-05-10T11:46:53;0.60;;;0.60;;
21886;SDS011;11108;49.988;8.182;2023-05-10T11:49:19;0.80;;;0.80;;
21886;SDS011;11108;49.988;8.182;2023-05-10T11:51:45;0.60;;;0.60;;
21886;SDS011;11108;49.988;8.182;2023-05-10T11:54:10;0.80;;;0.80;;
21886;SDS011;11108;49.988;8.182;2023-05-10T11:56:37;1.30;;;0.50;;
21886;SDS011;11108;49.988;8.182;2023-05-10T11:59:02;0.80;;;0.80;;
21886;SDS011;11108;49.988;8.182;2023-05-10T12:01:28;0.70;;;0.70;;
21886;SDS011;11108;49.988;8.182;2023-05-10T12:03:54;0.93;;;0.87;;
21886;SDS011;11108;49.988;8.182;2023-05-10T12:06:20;0.60;;;0.60;;
21886;SDS011;11108;49.988;8.182;2023-05-10T12:08:46;0.50;;;0.50;;
21886;SDS011;11108;49.988;8.182;2023-05-10T12:11:11;0.77;;;0.60;;
21886;SDS011;11108;49.988;8.182;2023-05-10T12:13:37;0.60;;;0.60;;
21886;SDS011;11108;49.988;8.182;2023-05-10T12:16:13;0.60;;;0.60;;
21886;SDS011;11108;49.988;8.182;2023-05-10T12:18:39;0.73;;;0.73;;
21886;SDS011;11108;49.988;8.182;2023-05-10T12:21:05;0.57;;;0.57;;
21886;SDS011;11108;49.988;8.182;2023-05-10T12:23:30;0.87;;;0.60;;
21886;SDS011;11108;49.988;8.182;2023-05-10T12:26:01;1.03;;;0.57;;
21886;SDS011;11108;49.988;8.182;2023-05-10T12:28:29;0.70;;;0.70;;
21886;SDS011;11108;49.988;8.182;2023-05-10T12:30:54;0.60;;;0.60;;
21886;SDS011;11108;49.988;8.182;2023-05-10T12:33:19;0.50;;;0.50;;
21886;SDS011;11108;49.988;8.182;2023-05-10T12:35:46;1.07;;;0.50;;
21886;SDS011;11108;49.988;8.182;2023-05-10T12:38:24;1.03;;;0.60;;
21886;SDS011;11108;49.988;8.182;2023-05-10T12:40:54;0.60;;;0.60;;
21886;SDS011;11108;49.988;8.182;2023-05-10T12:43:19;0.60;;;0.60;;
21886;SDS011;11108;49.988;8.182;2023-05-10T12:45:45;0.60;;;0.60;;
21886;SDS011;11108;49.988;8.182;2023-05-10T12:48:12;0.50;;;0.50;;
21886;SDS011;11108;49.988;8.182;2023-05-10T12:50:38;0.87;;;0.87;;
21886;SDS011;11108;49.988;8.182;2023-05-10T12:53:03;0.80;;;0.80;;
21886;SDS011;11108;49.988;8.182;2023-05-10T12:55:28;0.63;;;0.63;;
21886;SDS011;11108;49.988;8.182;2023-05-10T12:57:53;0.63;;;0.63;;
21886;SDS011;11108;49.988;8.182;2023-05-10T13:00:18;0.60;;;0.60;;
21886;SDS011;11108;49.988;8.182;2023-05-10T13:02:44;0.80;;;0.80;;
21886;SDS011;11108;49.988;8.182;2023-05-10T13:05:09;0.50;;;0.50;;
21886;SDS011;11108;49.988;8.182;2023-05-10T13:07:34;0.67;;;0.60;;
21886;SDS011;11108;49.988;8.182;2023-05-10T13:09:59;1.77;;;0.50;;
21886;SDS011;11108;49.988;8.182;2023-05-10T13:12:25;0.40;;;0.40;;
21886;SDS011;11108;49.988;8.182;2023-05-10T13:14:50;0.70;;;0.70;;
21886;SDS011;11108;49.988;8.182;2023-05-10T13:17:15;0.50;;;0.50;;
21886;SDS011;11108;49.988;8.182;2023-05-10T13:19:40;0.60;;;0.60;;
21886;SDS011;11108;49.988;8.182;2023-05-10T13:22:05;0.40;;;0.40;;
21886;SDS011;11108;49.988;8.182;2023-05-10T13:24:31;0.87;;;0.60;;
21886;SDS011;11108;49.988;8.182;2023-05-10T13:26:56;0.50;;;0.50;;
21886;SDS011;11108;49.988;8.182;2023-05-10T13:29:21;0.77;;;0.60;;
21886;SDS011;11108;49.988;8.182;2023-05-10T13:31:47;0.70;;;0.70;;
21886;SDS011;11108;49.988;8.182;2023-05-10T13:34:13;0.50;;;0.50;;
21886;SDS011;11108;49.988;8.182;2023-05-10T13:36:38;0.60;;;0.60;;
21886;SDS011;11108;49.988;8.182;2023-05-10T13:39:03;0.87;;;0.67;;
21886;SDS011;11108;49.988;8.182;2023-05-10T13:41:30;1.03;;;0.60;;
21886;SDS011;11108;49.988;8.182;2023-05-10T13:43:55;0.50;;;0.50;;
21886;SDS011;11108;49.988;8.182;2023-05-10T13:46:20;0.57;;;0.57;;
21886;SDS011;11108;49.988;8.182;2023-05-10T13:48:45;0.30;;;0.30;;
21886;SDS011;11108;49.988;8.182;2023-05-10T13:51:10;0.53;;;0.53;;
21886;SDS011;11108;49.988;8.182;2023-05-10T13:53:36;0.50;;;0.50;;
21886;SDS011;11108;49.988;8.182;2023-05-10T13:56:01;0.63;;;0.63;;
21886;SDS011;11108;49.988;8.182;2023-05-10T13:58:27;0.50;;;0.50;;
21886;SDS011;11108;49.988;8.182;2023-05-10T14:00:53;1.13;;;0.70;;
21886;SDS011;11108;49.988;8.182;2023-05-10T14:03:18;0.97;;;0.70;;
21886;SDS011;11108;49.988;8.182;2023-05-10T14:05:43;1.53;;;0.63;;
21886;SDS011;11108;49.988;8.182;2023-05-10T14:08:09;1.33;;;0.87;;
21886;SDS011;11108;49.988;8.182;2023-05-10T14:10:35;1.23;;;0.80;;
21886;SDS011;11108;49.988;8.182;2023-05-10T14:13:01;0.60;;;0.60;;
21886;SDS011;11108;49.988;8.182;2023-05-10T14:15:28;0.50;;;0.50;;
21886;SDS011;11108;49.988;8.182;2023-05-10T14:17:53;0.67;;;0.67;;
21886;SDS011;11108;49.988;8.182;2023-05-10T14:20:18;0.60;;;0.60;;
21886;SDS011;11108;49.988;8.182;2023-05-10T14:22:43;1.13;;;0.60;;
21886;SDS011;11108;49.988;8.182;2023-05-10T14:25:08;0.50;;;0.50;;
21886;SDS011;11108;49.988;8.182;2023-05-10T14:27:34;1.13;;;0.70;;
21886;SDS011;11108;49.988;8.182;2023-05-10T14:29:59;0.60;;;0.60;;
21886;SDS011;11108;49.988;8.182;2023-05-10T14:32:24;0.60;;;0.60;;
21886;SDS011;11108;49.988;8.182;2023-05-10T14:34:49;0.87;;;0.70;;
21886;SDS011;11108;49.988;8.182;2023-05-10T14:37:15;0.60;;;0.60;;
21886;SDS011;11108;49.988;8.182;2023-05-10T14:39:40;0.83;;;0.67;;
21886;SDS011;11108;49.988;8.182;2023-05-10T14:42:07;0.70;;;0.70;;
21886;SDS011;11108;49.988;8.182;2023-05-10T14:44:32;0.70;;;0.70;;
21886;SDS011;11108;49.988;8.182;2023-05-10T14:46:57;0.97;;;0.77;;
21886;SDS011;11108;49.988;8.182;2023-05-10T14:49:22;0.90;;;0.80;;
21886;SDS011;11108;49.988;8.182;2023-05-10T14:51:50;0.60;;;0.60;;
21886;SDS011;11108;49.988;8.182;2023-05-10T14:54:15;1.10;;;0.60;;
21886;SDS011;11108;49.988;8.182;2023-05-10T14:56:41;0.73;;;0.73;;
21886;SDS011;11108;49.988;8.182;2023-05-10T14:59:06;0.50;;;0.50;;
21886;SDS011;11108;49.988;8.182;2023-05-10T15:01:32;0.60;;;0.60;;
21886;SDS011;11108;49.988;8.182;2023-05-10T15:03:57;0.60;;;0.60;;
21886;SDS011;11108;49.988;8.182;2023-05-10T15:06:23;0.80;;;0.80;;
21886;SDS011;11108;49.988;8.182;2023-05-10T15:08:51;0.73;;;0.73;;